sensor_id;sensor_type;location;lat;lon;timestamp;P1;durP1;ratioP1;P2;durP2;ratioP2
11034;SDS011;5571;48.110;-1.706;2023-01-29T00:02:04;6.47;;;3.70;;
11034;SDS011;5571;48.110;-1.706;2023-01-29T00:04:30;6.13;;;3.70;;
11034;SDS011;5571;48.110;-1.706;2023-01-29T00:06:55;5.10;;;3.53;;
11034;SDS011;5571;48.110;-1.706;2023-01-29T00:09:21;6.90;;;3.13;;
11034;SDS011;5571;48.110;-1.706;2023-01-29T00:11:47;6.37;;;3.30;;
11034;SDS011;5571;48.110;-1.706;2023-01-29T00:14:12;7.27;;;3.77;;
11034;SDS011;5571;48.110;-1.706;2023-01-29T00:16:38;6.23;;;3.60;;
11034;SDS011;5571;48.110;-1.706;2023-01-29T00:19:03;6.13;;;3.40;;
11034;SDS011;5571;48.110;-1.706;2023-01-29T00:21:29;8.30;;;3.73;;
11034;SDS011;5571;48.110;-1.706;2023-01-29T00:23:56;6.37;;;3.80;;
11034;SDS011;5571;48.110;-1.706;2023-01-29T00:26:22;7.33;;;3.90;;
11034;SDS011;5571;48.110;-1.706;2023-01-29T00:28:48;5.37;;;3.23;;
11034;SDS011;5571;48.110;-1.706;2023-01-29T00:31:15;7.13;;;3.50;;
11034;SDS011;5571;48.110;-1.706;2023-01-29T00:33:46;7.77;;;3.30;;
11034;SDS011;5571;48.110;-1.706;2023-01-29T00:36:13;7.97;;;3.57;;
11034;SDS011;5571;48.110;-1.706;2023-01-29T00:38:39;6.17;;;3.23;;
11034;SDS011;5571;48.110;-1.706;2023-01-29T00:41:09;6.03;;;3.10;;
11034;SDS011;5571;48.110;-1.706;2023-01-29T00:43:55;6.87;;;3.40;;
11034;SDS011;5571;48.110;-1.706;2023-01-29T00:46:40;6.50;;;3.50;;
11034;SDS011;5571;48.110;-1.706;2023-01-29T00:49:06;6.93;;;3.30;;
11034;SDS011;5571;48.110;-1.706;2023-01-29T00:51:32;4.87;;;2.90;;
11034;SDS011;5571;48.110;-1.706;2023-01-29T00:53:57;6.43;;;3.57;;
11034;SDS011;5571;48.110;-1.706;2023-01-29T00:56:24;8.10;;;3.47;;
11034;SDS011;5571;48.110;-1.706;2023-01-29T00:58:50;6.40;;;2.87;;
11034;SDS011;5571;48.110;-1.706;2023-01-29T01:01:16;5.17;;;3.07;;
11034;SDS011;5571;48.110;-1.706;2023-01-29T01:03:41;7.07;;;3.17;;
11034;SDS011;5571;48.110;-1.706;2023-01-29T01:06:08;6.77;;;3.40;;
11034;SDS011;5571;48.110;-1.706;2023-01-29T01:08:35;6.83;;;3.37;;
11034;SDS011;5571;48.110;-1.706;2023-01-29T01:11:19;6.27;;;3.27;;
11034;SDS011;5571;48.110;-1.706;2023-01-29T01:13:45;5.00;;;3.27;;
11034;SDS011;5571;48.110;-1.706;2023-01-29T01:16:16;5.70;;;3.37;;
11034;SDS011;5571;48.110;-1.706;2023-01-29T01:18:42;4.17;;;2.97;;
11034;SDS011;5571;48.110;-1.706;2023-01-29T01:21:08;5.00;;;2.97;;
11034;SDS011;5571;48.110;-1.706;2023-01-29T01:23:34;6.10;;;3.00;;
11034;SDS011;5571;48.110;-1.706;2023-01-29T01:26:00;8.10;;;3.17;;
11034;SDS011;5571;48.110;-1.706;2023-01-29T01:28:26;7.07;;;3.27;;
11034;SDS011;5571;48.110;-1.706;2023-01-29T01:30:52;4.57;;;3.10;;
11034;SDS011;5571;48.110;-1.706;2023-01-29T01:33:18;9.50;;;3.10;;
11034;SDS011;5571;48.110;-1.706;2023-01-29T01:35:44;7.43;;;3.10;;
11034;SDS011;5571;48.110;-1.706;2023-01-29T01:38:10;4.10;;;2.80;;
11034;SDS011;5571;48.110;-1.706;2023-01-29T01:40:35;5.00;;;2.97;;
11034;SDS011;5571;48.110;-1.706;2023-01-29T01:43:01;4.57;;;2.97;;
11034;SDS011;5571;48.110;-1.706;2023-01-29T01:50:35;3.43;;;2.80;;
11034;SDS011;5571;48.110;-1.706;2023-01-29T01:53:08;5.60;;;2.83;;
11034;SDS011;5571;48.110;-1.706;2023-01-29T01:55:38;4.13;;;2.57;;
11034;SDS011;5571;48.110;-1.706;2023-01-29T01:58:10;7.23;;;2.90;;
11034;SDS011;5571;48.110;-1.706;2023-01-29T02:00:38;4.43;;;2.80;;
11034;SDS011;5571;48.110;-1.706;2023-01-29T02:03:04;6.17;;;3.03;;
11034;SDS011;5571;48.110;-1.706;2023-01-29T02:05:50;5.47;;;2.90;;
11034;SDS011;5571;48.110;-1.706;2023-01-29T02:08:41;4.17;;;2.93;;
11034;SDS011;5571;48.110;-1.706;2023-01-29T02:11:38;3.97;;;2.70;;
11034;SDS011;5571;48.110;-1.706;2023-01-29T02:14:05;8.17;;;2.90;;
11034;SDS011;5571;48.110;-1.706;2023-01-29T02:16:32;3.10;;;2.63;;
11034;SDS011;5571;48.110;-1.706;2023-01-29T02:18:59;8.73;;;2.70;;
11034;SDS011;5571;48.110;-1.706;2023-01-29T02:29:05;4.43;;;2.60;;
11034;SDS011;5571;48.110;-1.706;2023-01-29T02:39:32;5.30;;;2.80;;
11034;SDS011;5571;48.110;-1.706;2023-01-29T02:45:11;4.57;;;2.83;;
11034;SDS011;5571;48.110;-1.706;2023-01-29T02:53:01;4.60;;;2.87;;
11034;SDS011;5571;48.110;-1.706;2023-01-29T02:58:13;5.07;;;2.80;;
11034;SDS011;5571;48.110;-1.706;2023-01-29T03:00:48;3.87;;;2.70;;
11034;SDS011;5571;48.110;-1.706;2023-01-29T03:03:17;3.63;;;2.90;;
11034;SDS011;5571;48.110;-1.706;2023-01-29T03:05:51;5.83;;;2.77;;
11034;SDS011;5571;48.110;-1.706;2023-01-29T03:08:35;3.77;;;2.60;;
11034;SDS011;5571;48.110;-1.706;2023-01-29T03:11:14;4.20;;;2.40;;
11034;SDS011;5571;48.110;-1.706;2023-01-29T03:17:12;4.13;;;2.50;;
11034;SDS011;5571;48.110;-1.706;2023-01-29T03:19:40;5.33;;;2.60;;
11034;SDS011;5571;48.110;-1.706;2023-01-29T03:22:10;4.43;;;2.57;;
11034;SDS011;5571;48.110;-1.706;2023-01-29T03:24:47;5.17;;;2.60;;
11034;SDS011;5571;48.110;-1.706;2023-01-29T03:27:45;2.43;;;2.20;;
11034;SDS011;5571;48.110;-1.706;2023-01-29T03:30:32;4.10;;;2.40;;
11034;SDS011;5571;48.110;-1.706;2023-01-29T03:33:21;6.77;;;2.50;;
11034;SDS011;5571;48.110;-1.706;2023-01-29T03:35:52;3.57;;;2.13;;
11034;SDS011;5571;48.110;-1.706;2023-01-29T03:38:26;5.63;;;2.17;;
11034;SDS011;5571;48.110;-1.706;2023-01-29T03:46:52;5.03;;;2.50;;
11034;SDS011;5571;48.110;-1.706;2023-01-29T03:54:56;3.00;;;2.77;;
11034;SDS011;5571;48.110;-1.706;2023-01-29T03:57:34;4.73;;;2.80;;
11034;SDS011;5571;48.110;-1.706;2023-01-29T04:05:32;5.00;;;2.97;;
11034;SDS011;5571;48.110;-1.706;2023-01-29T04:08:09;4.53;;;3.20;;
11034;SDS011;5571;48.110;-1.706;2023-01-29T04:10:38;4.90;;;2.93;;
11034;SDS011;5571;48.110;-1.706;2023-01-29T04:13:08;5.77;;;3.43;;
11034;SDS011;5571;48.110;-1.706;2023-01-29T04:15:47;6.30;;;3.73;;
11034;SDS011;5571;48.110;-1.706;2023-01-29T04:18:17;8.60;;;3.80;;
11034;SDS011;5571;48.110;-1.706;2023-01-29T04:20:42;4.53;;;3.60;;
11034;SDS011;5571;48.110;-1.706;2023-01-29T04:23:18;6.47;;;3.37;;
11034;SDS011;5571;48.110;-1.706;2023-01-29T04:25:47;9.60;;;4.00;;
11034;SDS011;5571;48.110;-1.706;2023-01-29T04:28:48;7.63;;;4.33;;
11034;SDS011;5571;48.110;-1.706;2023-01-29T04:31:16;5.83;;;3.87;;
11034;SDS011;5571;48.110;-1.706;2023-01-29T04:33:49;6.27;;;3.93;;
11034;SDS011;5571;48.110;-1.706;2023-01-29T04:44:37;8.40;;;4.70;;
11034;SDS011;5571;48.110;-1.706;2023-01-29T04:50:05;6.20;;;4.27;;
11034;SDS011;5571;48.110;-1.706;2023-01-29T04:55:29;6.57;;;4.27;;
11034;SDS011;5571;48.110;-1.706;2023-01-29T04:58:05;10.30;;;5.23;;
11034;SDS011;5571;48.110;-1.706;2023-01-29T05:00:44;9.57;;;4.67;;
11034;SDS011;5571;48.110;-1.706;2023-01-29T05:03:14;5.77;;;4.27;;
11034;SDS011;5571;48.110;-1.706;2023-01-29T05:05:41;6.97;;;5.07;;
11034;SDS011;5571;48.110;-1.706;2023-01-29T05:08:11;6.13;;;4.70;;
11034;SDS011;5571;48.110;-1.706;2023-01-29T05:10:39;9.80;;;5.20;;
11034;SDS011;5571;48.110;-1.706;2023-01-29T05:13:07;6.03;;;4.93;;
11034;SDS011;5571;48.110;-1.706;2023-01-29T05:15:40;5.67;;;4.87;;
11034;SDS011;5571;48.110;-1.706;2023-01-29T05:18:11;6.87;;;5.00;;
11034;SDS011;5571;48.110;-1.706;2023-01-29T05:20:37;5.53;;;4.73;;
11034;SDS011;5571;48.110;-1.706;2023-01-29T05:23:22;5.80;;;5.13;;
11034;SDS011;5571;48.110;-1.706;2023-01-29T05:25:49;5.80;;;5.13;;
11034;SDS011;5571;48.110;-1.706;2023-01-29T05:28:15;5.47;;;4.97;;
11034;SDS011;5571;48.110;-1.706;2023-01-29T05:30:43;7.90;;;5.30;;
11034;SDS011;5571;48.110;-1.706;2023-01-29T05:33:11;8.97;;;5.77;;
11034;SDS011;5571;48.110;-1.706;2023-01-29T05:35:40;7.23;;;5.87;;
11034;SDS011;5571;48.110;-1.706;2023-01-29T05:38:05;9.67;;;5.40;;
11034;SDS011;5571;48.110;-1.706;2023-01-29T05:40:31;7.50;;;5.43;;
11034;SDS011;5571;48.110;-1.706;2023-01-29T05:42:57;6.30;;;5.70;;
11034;SDS011;5571;48.110;-1.706;2023-01-29T05:45:23;9.20;;;5.70;;
11034;SDS011;5571;48.110;-1.706;2023-01-29T05:47:49;6.50;;;5.27;;
11034;SDS011;5571;48.110;-1.706;2023-01-29T05:50:15;9.17;;;5.90;;
11034;SDS011;5571;48.110;-1.706;2023-01-29T05:52:40;9.27;;;5.87;;
11034;SDS011;5571;48.110;-1.706;2023-01-29T05:55:07;7.27;;;5.87;;
11034;SDS011;5571;48.110;-1.706;2023-01-29T05:57:34;7.70;;;6.00;;
11034;SDS011;5571;48.110;-1.706;2023-01-29T06:00:00;9.13;;;5.73;;
11034;SDS011;5571;48.110;-1.706;2023-01-29T06:02:28;6.17;;;5.43;;
11034;SDS011;5571;48.110;-1.706;2023-01-29T06:04:54;7.50;;;5.67;;
11034;SDS011;5571;48.110;-1.706;2023-01-29T06:07:20;8.43;;;5.20;;
11034;SDS011;5571;48.110;-1.706;2023-01-29T06:09:45;7.20;;;5.67;;
11034;SDS011;5571;48.110;-1.706;2023-01-29T06:12:11;6.10;;;5.27;;
11034;SDS011;5571;48.110;-1.706;2023-01-29T06:14:37;7.70;;;5.20;;
11034;SDS011;5571;48.110;-1.706;2023-01-29T06:17:02;8.33;;;5.70;;
11034;SDS011;5571;48.110;-1.706;2023-01-29T06:19:28;11.00;;;5.73;;
11034;SDS011;5571;48.110;-1.706;2023-01-29T06:21:54;7.90;;;5.73;;
11034;SDS011;5571;48.110;-1.706;2023-01-29T06:24:20;8.10;;;6.00;;
11034;SDS011;5571;48.110;-1.706;2023-01-29T06:26:45;7.30;;;5.63;;
11034;SDS011;5571;48.110;-1.706;2023-01-29T06:29:11;8.10;;;6.07;;
11034;SDS011;5571;48.110;-1.706;2023-01-29T06:31:37;9.50;;;6.40;;
11034;SDS011;5571;48.110;-1.706;2023-01-29T06:34:03;12.03;;;6.07;;
11034;SDS011;5571;48.110;-1.706;2023-01-29T06:36:28;8.00;;;5.93;;
11034;SDS011;5571;48.110;-1.706;2023-01-29T06:38:54;8.43;;;5.70;;
11034;SDS011;5571;48.110;-1.706;2023-01-29T06:41:20;7.77;;;5.60;;
11034;SDS011;5571;48.110;-1.706;2023-01-29T06:43:49;10.90;;;6.43;;
11034;SDS011;5571;48.110;-1.706;2023-01-29T06:46:15;11.73;;;6.00;;
11034;SDS011;5571;48.110;-1.706;2023-01-29T06:48:41;7.43;;;6.17;;
11034;SDS011;5571;48.110;-1.706;2023-01-29T06:51:07;7.77;;;6.00;;
11034;SDS011;5571;48.110;-1.706;2023-01-29T06:53:34;8.33;;;6.10;;
11034;SDS011;5571;48.110;-1.706;2023-01-29T06:56:01;9.03;;;6.03;;
11034;SDS011;5571;48.110;-1.706;2023-01-29T06:58:28;8.37;;;6.30;;
11034;SDS011;5571;48.110;-1.706;2023-01-29T07:01:01;6.77;;;6.07;;
11034;SDS011;5571;48.110;-1.706;2023-01-29T07:03:30;11.97;;;6.50;;
11034;SDS011;5571;48.110;-1.706;2023-01-29T07:05:56;11.70;;;7.63;;
11034;SDS011;5571;48.110;-1.706;2023-01-29T07:08:21;8.00;;;6.23;;
11034;SDS011;5571;48.110;-1.706;2023-01-29T07:10:47;9.97;;;7.40;;
11034;SDS011;5571;48.110;-1.706;2023-01-29T07:13:14;8.60;;;7.57;;
11034;SDS011;5571;48.110;-1.706;2023-01-29T07:15:40;7.53;;;6.70;;
11034;SDS011;5571;48.110;-1.706;2023-01-29T07:18:06;10.10;;;7.73;;
11034;SDS011;5571;48.110;-1.706;2023-01-29T07:20:37;9.70;;;7.47;;
11034;SDS011;5571;48.110;-1.706;2023-01-29T07:23:04;9.17;;;7.27;;
11034;SDS011;5571;48.110;-1.706;2023-01-29T07:25:30;11.43;;;7.93;;
11034;SDS011;5571;48.110;-1.706;2023-01-29T07:27:59;15.07;;;8.13;;
11034;SDS011;5571;48.110;-1.706;2023-01-29T07:30:25;10.33;;;7.50;;
11034;SDS011;5571;48.110;-1.706;2023-01-29T07:32:50;10.70;;;7.47;;
11034;SDS011;5571;48.110;-1.706;2023-01-29T07:35:16;8.73;;;7.23;;
11034;SDS011;5571;48.110;-1.706;2023-01-29T07:37:42;11.63;;;7.57;;
11034;SDS011;5571;48.110;-1.706;2023-01-29T07:40:08;9.53;;;8.00;;
11034;SDS011;5571;48.110;-1.706;2023-01-29T07:42:36;8.73;;;7.63;;
11034;SDS011;5571;48.110;-1.706;2023-01-29T07:45:03;10.33;;;8.47;;
11034;SDS011;5571;48.110;-1.706;2023-01-29T07:47:29;12.67;;;8.03;;
11034;SDS011;5571;48.110;-1.706;2023-01-29T07:49:55;9.90;;;8.10;;
11034;SDS011;5571;48.110;-1.706;2023-01-29T07:52:21;16.43;;;7.93;;
11034;SDS011;5571;48.110;-1.706;2023-01-29T07:54:46;12.27;;;8.87;;
11034;SDS011;5571;48.110;-1.706;2023-01-29T07:57:12;11.80;;;9.23;;
11034;SDS011;5571;48.110;-1.706;2023-01-29T07:59:38;14.07;;;9.87;;
11034;SDS011;5571;48.110;-1.706;2023-01-29T08:02:03;13.50;;;10.50;;
11034;SDS011;5571;48.110;-1.706;2023-01-29T08:04:29;15.20;;;10.00;;
11034;SDS011;5571;48.110;-1.706;2023-01-29T08:06:54;10.73;;;8.63;;
11034;SDS011;5571;48.110;-1.706;2023-01-29T08:09:20;14.20;;;8.23;;
11034;SDS011;5571;48.110;-1.706;2023-01-29T08:11:45;10.87;;;8.00;;
11034;SDS011;5571;48.110;-1.706;2023-01-29T08:14:11;10.30;;;7.60;;
11034;SDS011;5571;48.110;-1.706;2023-01-29T08:16:37;12.93;;;8.43;;
11034;SDS011;5571;48.110;-1.706;2023-01-29T08:19:02;11.63;;;7.50;;
11034;SDS011;5571;48.110;-1.706;2023-01-29T08:21:28;13.63;;;8.73;;
11034;SDS011;5571;48.110;-1.706;2023-01-29T08:23:54;12.17;;;8.13;;
11034;SDS011;5571;48.110;-1.706;2023-01-29T08:26:19;13.47;;;9.03;;
11034;SDS011;5571;48.110;-1.706;2023-01-29T08:28:45;11.60;;;8.17;;
11034;SDS011;5571;48.110;-1.706;2023-01-29T08:31:14;11.40;;;7.53;;
11034;SDS011;5571;48.110;-1.706;2023-01-29T08:33:41;13.10;;;8.43;;
11034;SDS011;5571;48.110;-1.706;2023-01-29T08:36:07;8.67;;;7.87;;
11034;SDS011;5571;48.110;-1.706;2023-01-29T08:38:33;11.70;;;8.70;;
11034;SDS011;5571;48.110;-1.706;2023-01-29T08:40:59;14.37;;;9.60;;
11034;SDS011;5571;48.110;-1.706;2023-01-29T08:43:24;13.30;;;10.07;;
11034;SDS011;5571;48.110;-1.706;2023-01-29T08:45:50;13.27;;;9.53;;
11034;SDS011;5571;48.110;-1.706;2023-01-29T08:48:15;18.40;;;13.27;;
11034;SDS011;5571;48.110;-1.706;2023-01-29T08:50:41;15.50;;;11.97;;
11034;SDS011;5571;48.110;-1.706;2023-01-29T08:53:07;17.00;;;13.30;;
11034;SDS011;5571;48.110;-1.706;2023-01-29T08:55:37;22.77;;;13.93;;
11034;SDS011;5571;48.110;-1.706;2023-01-29T08:58:04;16.73;;;13.07;;
11034;SDS011;5571;48.110;-1.706;2023-01-29T09:00:31;11.83;;;9.93;;
11034;SDS011;5571;48.110;-1.706;2023-01-29T09:02:57;11.67;;;9.20;;
11034;SDS011;5571;48.110;-1.706;2023-01-29T09:05:25;13.80;;;8.97;;
11034;SDS011;5571;48.110;-1.706;2023-01-29T09:07:51;12.33;;;9.17;;
11034;SDS011;5571;48.110;-1.706;2023-01-29T09:10:17;13.57;;;9.70;;
11034;SDS011;5571;48.110;-1.706;2023-01-29T09:12:43;17.60;;;9.90;;
11034;SDS011;5571;48.110;-1.706;2023-01-29T09:15:09;11.10;;;9.43;;
11034;SDS011;5571;48.110;-1.706;2023-01-29T09:17:35;12.87;;;9.23;;
11034;SDS011;5571;48.110;-1.706;2023-01-29T09:20:00;11.07;;;9.00;;
11034;SDS011;5571;48.110;-1.706;2023-01-29T09:22:27;15.33;;;11.73;;
11034;SDS011;5571;48.110;-1.706;2023-01-29T09:24:52;13.70;;;10.23;;
11034;SDS011;5571;48.110;-1.706;2023-01-29T09:27:18;13.13;;;9.43;;
11034;SDS011;5571;48.110;-1.706;2023-01-29T09:29:44;11.27;;;9.00;;
11034;SDS011;5571;48.110;-1.706;2023-01-29T09:32:09;10.97;;;9.13;;
11034;SDS011;5571;48.110;-1.706;2023-01-29T09:34:35;10.43;;;8.67;;
11034;SDS011;5571;48.110;-1.706;2023-01-29T09:37:00;11.23;;;8.70;;
11034;SDS011;5571;48.110;-1.706;2023-01-29T09:39:26;11.23;;;9.60;;
11034;SDS011;5571;48.110;-1.706;2023-01-29T09:41:55;15.37;;;12.13;;
11034;SDS011;5571;48.110;-1.706;2023-01-29T09:47:10;13.80;;;9.87;;
11034;SDS011;5571;48.110;-1.706;2023-01-29T09:49:40;10.00;;;8.90;;
11034;SDS011;5571;48.110;-1.706;2023-01-29T09:52:19;13.57;;;9.20;;
11034;SDS011;5571;48.110;-1.706;2023-01-29T09:57:23;11.97;;;9.50;;
11034;SDS011;5571;48.110;-1.706;2023-01-29T09:59:53;11.93;;;9.30;;
11034;SDS011;5571;48.110;-1.706;2023-01-29T10:10:54;11.20;;;9.60;;
11034;SDS011;5571;48.110;-1.706;2023-01-29T10:22:02;13.83;;;11.17;;
11034;SDS011;5571;48.110;-1.706;2023-01-29T10:24:59;12.33;;;10.27;;
11034;SDS011;5571;48.110;-1.706;2023-01-29T10:27:33;13.67;;;11.20;;
11034;SDS011;5571;48.110;-1.706;2023-01-29T10:30:02;13.53;;;10.10;;
11034;SDS011;5571;48.110;-1.706;2023-01-29T10:32:33;11.10;;;9.70;;
11034;SDS011;5571;48.110;-1.706;2023-01-29T10:35:02;13.67;;;10.67;;
11034;SDS011;5571;48.110;-1.706;2023-01-29T10:37:38;16.07;;;11.07;;
11034;SDS011;5571;48.110;-1.706;2023-01-29T10:40:14;16.00;;;10.20;;
11034;SDS011;5571;48.110;-1.706;2023-01-29T10:50:49;11.43;;;9.57;;
11034;SDS011;5571;48.110;-1.706;2023-01-29T10:58:53;12.93;;;9.70;;
11034;SDS011;5571;48.110;-1.706;2023-01-29T11:01:23;13.80;;;9.90;;
11034;SDS011;5571;48.110;-1.706;2023-01-29T11:04:01;22.90;;;12.63;;
11034;SDS011;5571;48.110;-1.706;2023-01-29T11:06:31;13.00;;;10.13;;
11034;SDS011;5571;48.110;-1.706;2023-01-29T11:09:02;13.97;;;9.93;;
11034;SDS011;5571;48.110;-1.706;2023-01-29T11:14:27;16.73;;;10.90;;
11034;SDS011;5571;48.110;-1.706;2023-01-29T11:16:58;15.73;;;11.67;;
11034;SDS011;5571;48.110;-1.706;2023-01-29T11:19:38;14.23;;;10.40;;
11034;SDS011;5571;48.110;-1.706;2023-01-29T11:22:10;24.27;;;16.63;;
11034;SDS011;5571;48.110;-1.706;2023-01-29T11:24:41;18.53;;;12.30;;
11034;SDS011;5571;48.110;-1.706;2023-01-29T11:29:51;18.63;;;11.03;;
11034;SDS011;5571;48.110;-1.706;2023-01-29T11:37:41;13.27;;;10.27;;
11034;SDS011;5571;48.110;-1.706;2023-01-29T11:42:43;14.17;;;10.00;;
11034;SDS011;5571;48.110;-1.706;2023-01-29T11:47:49;12.47;;;9.77;;
11034;SDS011;5571;48.110;-1.706;2023-01-29T11:50:19;13.97;;;10.37;;
11034;SDS011;5571;48.110;-1.706;2023-01-29T11:52:54;14.20;;;9.70;;
11034;SDS011;5571;48.110;-1.706;2023-01-29T11:55:23;13.20;;;10.13;;
11034;SDS011;5571;48.110;-1.706;2023-01-29T11:57:58;16.70;;;10.67;;
11034;SDS011;5571;48.110;-1.706;2023-01-29T12:00:30;14.30;;;9.97;;
11034;SDS011;5571;48.110;-1.706;2023-01-29T12:03:06;15.03;;;10.60;;
11034;SDS011;5571;48.110;-1.706;2023-01-29T12:06:05;12.80;;;10.47;;
11034;SDS011;5571;48.110;-1.706;2023-01-29T12:08:34;16.37;;;11.23;;
11034;SDS011;5571;48.110;-1.706;2023-01-29T12:11:10;11.73;;;10.13;;
11034;SDS011;5571;48.110;-1.706;2023-01-29T12:13:47;13.07;;;9.97;;
11034;SDS011;5571;48.110;-1.706;2023-01-29T12:19:00;18.00;;;11.73;;
11034;SDS011;5571;48.110;-1.706;2023-01-29T12:21:39;12.67;;;10.80;;
11034;SDS011;5571;48.110;-1.706;2023-01-29T12:24:58;11.67;;;10.07;;
11034;SDS011;5571;48.110;-1.706;2023-01-29T12:27:24;14.33;;;10.63;;
11034;SDS011;5571;48.110;-1.706;2023-01-29T12:35:45;13.70;;;9.80;;
11034;SDS011;5571;48.110;-1.706;2023-01-29T12:38:18;12.57;;;10.97;;
11034;SDS011;5571;48.110;-1.706;2023-01-29T12:40:46;15.07;;;10.80;;
11034;SDS011;5571;48.110;-1.706;2023-01-29T12:43:18;16.10;;;10.50;;
11034;SDS011;5571;48.110;-1.706;2023-01-29T12:45:51;15.87;;;10.87;;
11034;SDS011;5571;48.110;-1.706;2023-01-29T12:48:24;12.60;;;10.23;;
11034;SDS011;5571;48.110;-1.706;2023-01-29T12:51:12;13.10;;;10.40;;
11034;SDS011;5571;48.110;-1.706;2023-01-29T12:54:02;13.17;;;9.83;;
11034;SDS011;5571;48.110;-1.706;2023-01-29T12:56:45;13.20;;;10.60;;
11034;SDS011;5571;48.110;-1.706;2023-01-29T12:59:32;13.80;;;10.37;;
11034;SDS011;5571;48.110;-1.706;2023-01-29T13:05:00;19.60;;;11.00;;
11034;SDS011;5571;48.110;-1.706;2023-01-29T13:07:31;12.93;;;9.80;;
11034;SDS011;5571;48.110;-1.706;2023-01-29T13:10:12;16.53;;;10.60;;
11034;SDS011;5571;48.110;-1.706;2023-01-29T13:13:05;16.00;;;10.30;;
11034;SDS011;5571;48.110;-1.706;2023-01-29T13:15:38;13.33;;;10.33;;
11034;SDS011;5571;48.110;-1.706;2023-01-29T13:21:02;17.47;;;11.00;;
11034;SDS011;5571;48.110;-1.706;2023-01-29T13:23:39;14.37;;;11.53;;
11034;SDS011;5571;48.110;-1.706;2023-01-29T13:26:09;13.67;;;10.87;;
11034;SDS011;5571;48.110;-1.706;2023-01-29T13:28:36;14.00;;;9.87;;
11034;SDS011;5571;48.110;-1.706;2023-01-29T13:33:37;12.73;;;10.50;;
11034;SDS011;5571;48.110;-1.706;2023-01-29T13:36:20;14.07;;;10.83;;
11034;SDS011;5571;48.110;-1.706;2023-01-29T13:38:56;16.20;;;11.80;;
11034;SDS011;5571;48.110;-1.706;2023-01-29T13:41:36;13.90;;;10.77;;
11034;SDS011;5571;48.110;-1.706;2023-01-29T13:44:17;17.60;;;11.67;;
11034;SDS011;5571;48.110;-1.706;2023-01-29T13:46:54;14.70;;;12.03;;
11034;SDS011;5571;48.110;-1.706;2023-01-29T13:52:18;17.47;;;12.07;;
11034;SDS011;5571;48.110;-1.706;2023-01-29T13:55:03;26.60;;;14.90;;
11034;SDS011;5571;48.110;-1.706;2023-01-29T14:10:27;18.00;;;12.07;;
11034;SDS011;5571;48.110;-1.706;2023-01-29T14:13:24;14.70;;;12.43;;
11034;SDS011;5571;48.110;-1.706;2023-01-29T14:15:42;17.03;;;11.67;;
11034;SDS011;5571;48.110;-1.706;2023-01-29T14:18:28;14.73;;;11.03;;
11034;SDS011;5571;48.110;-1.706;2023-01-29T14:23:27;18.27;;;12.97;;
11034;SDS011;5571;48.110;-1.706;2023-01-29T14:25:58;19.07;;;11.70;;
11034;SDS011;5571;48.110;-1.706;2023-01-29T14:28:25;16.30;;;12.57;;
11034;SDS011;5571;48.110;-1.706;2023-01-29T14:30:54;14.07;;;11.60;;
11034;SDS011;5571;48.110;-1.706;2023-01-29T14:33:41;21.30;;;13.40;;
11034;SDS011;5571;48.110;-1.706;2023-01-29T14:36:12;17.07;;;12.97;;
11034;SDS011;5571;48.110;-1.706;2023-01-29T14:38:39;20.20;;;14.20;;
11034;SDS011;5571;48.110;-1.706;2023-01-29T14:41:28;18.13;;;13.40;;
11034;SDS011;5571;48.110;-1.706;2023-01-29T14:46:59;18.00;;;13.10;;
11034;SDS011;5571;48.110;-1.706;2023-01-29T14:52:13;16.90;;;11.70;;
11034;SDS011;5571;48.110;-1.706;2023-01-29T14:54:40;17.93;;;12.13;;
11034;SDS011;5571;48.110;-1.706;2023-01-29T14:57:08;15.27;;;12.20;;
11034;SDS011;5571;48.110;-1.706;2023-01-29T14:59:48;18.33;;;13.07;;
11034;SDS011;5571;48.110;-1.706;2023-01-29T15:02:26;16.23;;;13.00;;
11034;SDS011;5571;48.110;-1.706;2023-01-29T15:05:00;18.23;;;12.90;;
11034;SDS011;5571;48.110;-1.706;2023-01-29T15:07:36;18.87;;;13.17;;
11034;SDS011;5571;48.110;-1.706;2023-01-29T15:10:38;19.10;;;13.73;;
11034;SDS011;5571;48.110;-1.706;2023-01-29T15:13:16;17.97;;;13.60;;
11034;SDS011;5571;48.110;-1.706;2023-01-29T15:16:01;17.07;;;12.27;;
11034;SDS011;5571;48.110;-1.706;2023-01-29T15:18:44;15.67;;;13.00;;
11034;SDS011;5571;48.110;-1.706;2023-01-29T15:21:12;16.67;;;13.47;;
11034;SDS011;5571;48.110;-1.706;2023-01-29T15:23:40;17.00;;;13.60;;
11034;SDS011;5571;48.110;-1.706;2023-01-29T15:26:08;18.90;;;13.33;;
11034;SDS011;5571;48.110;-1.706;2023-01-29T15:28:42;18.50;;;13.70;;
11034;SDS011;5571;48.110;-1.706;2023-01-29T15:31:14;15.67;;;13.10;;
11034;SDS011;5571;48.110;-1.706;2023-01-29T15:33:44;17.93;;;12.13;;
11034;SDS011;5571;48.110;-1.706;2023-01-29T15:36:18;18.37;;;13.27;;
11034;SDS011;5571;48.110;-1.706;2023-01-29T15:38:46;18.00;;;13.43;;
11034;SDS011;5571;48.110;-1.706;2023-01-29T15:41:21;20.27;;;14.67;;
11034;SDS011;5571;48.110;-1.706;2023-01-29T15:43:48;19.90;;;14.50;;
11034;SDS011;5571;48.110;-1.706;2023-01-29T15:46:33;22.00;;;14.40;;
11034;SDS011;5571;48.110;-1.706;2023-01-29T15:49:04;23.37;;;15.70;;
11034;SDS011;5571;48.110;-1.706;2023-01-29T15:51:32;18.10;;;13.30;;
11034;SDS011;5571;48.110;-1.706;2023-01-29T15:54:02;20.57;;;14.17;;
11034;SDS011;5571;48.110;-1.706;2023-01-29T15:56:36;17.73;;;14.47;;
11034;SDS011;5571;48.110;-1.706;2023-01-29T15:59:05;20.10;;;15.13;;
11034;SDS011;5571;48.110;-1.706;2023-01-29T16:01:32;22.07;;;16.20;;
11034;SDS011;5571;48.110;-1.706;2023-01-29T16:03:59;19.13;;;15.20;;
11034;SDS011;5571;48.110;-1.706;2023-01-29T16:06:27;21.23;;;15.23;;
11034;SDS011;5571;48.110;-1.706;2023-01-29T16:08:57;18.87;;;14.33;;
11034;SDS011;5571;48.110;-1.706;2023-01-29T16:11:23;19.00;;;14.57;;
11034;SDS011;5571;48.110;-1.706;2023-01-29T16:13:49;17.10;;;13.53;;
11034;SDS011;5571;48.110;-1.706;2023-01-29T16:18:47;33.13;;;22.00;;
11034;SDS011;5571;48.110;-1.706;2023-01-29T16:23:48;24.00;;;15.43;;
11034;SDS011;5571;48.110;-1.706;2023-01-29T16:26:25;20.23;;;15.13;;
11034;SDS011;5571;48.110;-1.706;2023-01-29T16:28:55;19.53;;;16.23;;
11034;SDS011;5571;48.110;-1.706;2023-01-29T16:31:27;25.60;;;16.90;;
11034;SDS011;5571;48.110;-1.706;2023-01-29T16:33:55;20.97;;;15.73;;
11034;SDS011;5571;48.110;-1.706;2023-01-29T16:36:23;21.03;;;15.00;;
11034;SDS011;5571;48.110;-1.706;2023-01-29T16:38:54;19.80;;;15.23;;
11034;SDS011;5571;48.110;-1.706;2023-01-29T16:43:51;22.73;;;16.77;;
11034;SDS011;5571;48.110;-1.706;2023-01-29T16:48:50;21.10;;;14.97;;
11034;SDS011;5571;48.110;-1.706;2023-01-29T16:56:42;21.30;;;16.63;;
11034;SDS011;5571;48.110;-1.706;2023-01-29T16:59:11;26.20;;;17.73;;
11034;SDS011;5571;48.110;-1.706;2023-01-29T17:01:42;23.53;;;17.63;;
11034;SDS011;5571;48.110;-1.706;2023-01-29T17:04:09;23.17;;;16.07;;
11034;SDS011;5571;48.110;-1.706;2023-01-29T17:06:40;22.23;;;15.90;;
11034;SDS011;5571;48.110;-1.706;2023-01-29T17:12:07;21.20;;;16.27;;
11034;SDS011;5571;48.110;-1.706;2023-01-29T17:14:51;22.13;;;16.17;;
11034;SDS011;5571;48.110;-1.706;2023-01-29T17:17:17;19.27;;;15.83;;
11034;SDS011;5571;48.110;-1.706;2023-01-29T17:19:43;20.90;;;15.27;;
11034;SDS011;5571;48.110;-1.706;2023-01-29T17:22:09;22.40;;;16.13;;
11034;SDS011;5571;48.110;-1.706;2023-01-29T17:24:39;19.73;;;15.70;;
11034;SDS011;5571;48.110;-1.706;2023-01-29T17:27:11;22.20;;;16.43;;
11034;SDS011;5571;48.110;-1.706;2023-01-29T17:29:45;23.73;;;17.30;;
11034;SDS011;5571;48.110;-1.706;2023-01-29T17:32:12;27.07;;;18.00;;
11034;SDS011;5571;48.110;-1.706;2023-01-29T17:34:37;21.63;;;17.20;;
11034;SDS011;5571;48.110;-1.706;2023-01-29T17:37:03;24.57;;;17.03;;
11034;SDS011;5571;48.110;-1.706;2023-01-29T17:39:29;23.50;;;17.90;;
11034;SDS011;5571;48.110;-1.706;2023-01-29T17:41:56;22.87;;;16.50;;
11034;SDS011;5571;48.110;-1.706;2023-01-29T17:44:23;23.67;;;17.90;;
11034;SDS011;5571;48.110;-1.706;2023-01-29T17:46:52;23.23;;;16.53;;
11034;SDS011;5571;48.110;-1.706;2023-01-29T17:49:24;20.47;;;15.00;;
11034;SDS011;5571;48.110;-1.706;2023-01-29T17:51:56;21.00;;;15.23;;
11034;SDS011;5571;48.110;-1.706;2023-01-29T17:54:22;19.67;;;15.77;;